Time;durP1;ratioP1;P1;durP2;ratioP2;P2;SDS_P1;SDS_P2;PMS_P1;PMS_P2;Temp;Humidity;BMP_temperature;BMP_pressure;BME280_temperature;BME280_humidity;BME280_pressure;Samples;Min_cycle;Max_cycle;Signal;HPM_P1;HPM_P2
2023/10/28 00:01:34;;;;;;;7.27;4.40;;;;;;;6.93;100.00;99826.72;7373571;19;20415;-38
2023/10/28 00:04:04;;;;;;;68.40;26.33;;;;;;;7.25;100.00;99828.84;7396088;19;20407;-38
2023/10/28 00:06:34;;;;;;;38.83;16.10;;;;;;;7.34;100.00;99833.47;7372063;19;20781;-39
2023/10/28 00:09:05;;;;;;;23.20;10.93;;;;;;;7.37;100.00;99820.75;7395017;19;20443;-38
2023/10/28 00:11:35;;;;;;;30.13;8.90;;;;;;;7.36;100.00;99817.31;7373186;19;20951;-38
2023/10/28 00:14:08;;;;;;;36.47;16.70;;;;;;;7.35;100.00;99807.88;7395510;19;20467;-38
2023/10/28 00:16:38;;;;;;;26.10;10.73;;;;;;;7.25;100.00;99798.06;7372430;19;20494;-40
2023/10/28 00:19:09;;;;;;;15.70;7.17;;;;;;;7.32;100.00;99791.50;7395596;19;20814;-39
2023/10/28 00:21:38;;;;;;;21.70;10.60;;;;;;;7.33;100.00;99800.94;7374278;19;20425;-40
2023/10/28 00:24:10;;;;;;;22.80;11.53;;;;;;;7.35;100.00;99799.28;7393604;19;20403;-39
2023/10/28 00:26:40;;;;;;;9.90;4.93;;;;;;;7.15;100.00;99805.41;7372159;19;20411;-39
2023/10/28 00:29:12;;;;;;;16.20;6.30;;;;;;;7.18;100.00;99812.31;7395574;19;20443;-38
2023/10/28 00:31:43;;;;;;;7.73;4.50;;;;;;;7.19;100.00;99818.34;7371311;19;20419;-39
2023/10/28 00:34:13;;;;;;;9.47;4.40;;;;;;;7.15;100.00;99823.34;7396031;19;20416;-38
2023/10/28 00:36:43;;;;;;;6.40;4.10;;;;;;;7.15;100.00;99833.63;7371618;19;20514;-38
2023/10/28 00:39:13;;;;;;;7.40;4.17;;;;;;;7.14;100.00;99836.97;7395448;19;20453;-39
2023/10/28 00:41:43;;;;;;;7.23;4.00;;;;;;;7.08;100.00;99836.72;7372117;19;20435;-40
2023/10/28 00:44:15;;;;;;;7.63;4.33;;;;;;;7.00;100.00;99838.09;7395580;19;20419;-39
2023/10/28 00:46:45;;;;;;;6.70;3.90;;;;;;;7.01;100.00;99839.84;7371335;19;20424;-39
2023/10/28 00:49:15;;;;;;;9.57;4.50;;;;;;;6.97;100.00;99854.22;7394840;19;20439;-38
2023/10/28 00:51:45;;;;;;;8.10;4.00;;;;;;;6.89;100.00;99853.91;7370380;19;20430;-38
2023/10/28 00:54:15;;;;;;;7.13;4.53;;;;;;;6.96;100.00;99851.59;7397113;19;20402;-40
2023/10/28 00:56:44;;;;;;;7.63;4.17;;;;;;;6.87;100.00;99852.13;7371590;19;20439;-38
2023/10/28 00:59:17;;;;;;;7.77;3.87;;;;;;;6.81;100.00;99856.97;7395067;19;20443;-39
2023/10/28 01:01:46;;;;;;;7.10;4.17;;;;;;;6.83;100.00;99858.78;7372561;19;20961;-38
2023/10/28 01:04:17;;;;;;;8.00;3.70;;;;;;;6.80;100.00;99860.34;7394802;19;20407;-38
2023/10/28 01:06:46;;;;;;;6.00;3.70;;;;;;;6.81;100.00;99857.84;7370732;19;20423;-38
2023/10/28 01:09:16;;;;;;;5.00;3.00;;;;;;;6.83;100.00;99860.47;7394770;19;20524;-39
2023/10/28 01:11:46;;;;;;;8.70;4.03;;;;;;;6.82;100.00;99867.28;7371533;19;20419;-37
2023/10/28 01:14:19;;;;;;;5.87;3.40;;;;;;;6.80;100.00;99861.22;7394913;19;20424;-38
2023/10/28 01:16:49;;;;;;;7.43;3.70;;;;;;;6.76;100.00;99861.88;7370911;19;20418;-38
2023/10/28 01:19:18;;;;;;;7.17;3.40;;;;;;;6.84;100.00;99872.47;7394569;19;20456;-39
2023/10/28 01:21:50;;;;;;;5.50;3.33;;;;;;;6.81;100.00;99867.25;7371606;19;20514;-38
2023/10/28 01:24:20;;;;;;;6.10;3.60;;;;;;;6.79;100.00;99863.72;7393126;19;20404;-37
2023/10/28 01:26:50;;;;;;;10.53;3.63;;;;;;;6.81;100.00;99865.53;7366875;19;20600;-36
2023/10/28 01:29:19;;;;;;;7.90;3.90;;;;;;;6.82;100.00;99868.97;7390791;19;20427;-35
2023/10/28 01:31:49;;;;;;;4.93;3.47;;;;;;;6.77;100.00;99863.63;7371056;19;20427;-40
2023/10/28 01:34:18;;;;;;;5.73;3.57;;;;;;;6.78;100.00;99862.84;7395616;19;20410;-37
2023/10/28 01:36:51;;;;;;;8.03;3.83;;;;;;;6.80;100.00;99860.34;7369855;19;20790;-36
2023/10/28 01:39:21;;;;;;;5.53;3.30;;;;;;;6.77;100.00;99865.34;7392634;19;20499;-37
2023/10/28 01:41:50;;;;;;;10.10;4.70;;;;;;;6.78;100.00;99855.16;7372511;19;20447;-37
2023/10/28 01:44:20;;;;;;;5.43;3.33;;;;;;;6.78;100.00;99856.84;7394575;19;20399;-35
2023/10/28 01:46:49;;;;;;;6.97;3.63;;;;;;;6.73;100.00;99862.63;7370040;19;20506;-37
2023/10/28 01:49:19;;;;;;;5.83;3.63;;;;;;;6.78;100.00;99864.53;7393974;19;20396;-36
2023/10/28 01:51:51;;;;;;;8.10;4.17;;;;;;;6.75;100.00;99863.59;7370202;19;20963;-35
2023/10/28 01:54:21;;;;;;;6.33;3.60;;;;;;;6.77;100.00;99855.09;7392157;19;20410;-35
2023/10/28 01:57:00;;;;;;;8.67;4.30;;;;;;;6.78;100.00;99851.72;7369648;19;20510;-38
2023/10/28 01:59:30;;;;;;;6.97;3.90;;;;;;;6.73;100.00;99847.25;7390804;19;21300;-41
2023/10/28 02:02:01;;;;;;;7.50;3.60;;;;;;;6.74;100.00;99845.56;7370612;19;20431;-37
2023/10/28 02:04:31;;;;;;;7.87;3.80;;;;;;;6.77;100.00;99848.25;7400440;19;20403;-36
2023/10/28 02:07:04;;;;;;;6.70;3.80;;;;;;;6.78;100.00;99841.44;7376198;19;20467;-37
2023/10/28 02:09:34;;;;;;;6.23;3.30;;;;;;;6.77;100.00;99843.13;7395938;19;20820;-36
2023/10/28 02:12:04;;;;;;;7.17;3.50;;;;;;;6.77;100.00;99840.56;7377383;19;20432;-41
2023/10/28 02:14:35;;;;;;;6.30;3.60;;;;;;;6.79;100.00;99838.97;7401563;19;20768;-36
2023/10/28 02:17:05;;;;;;;7.03;3.50;;;;;;;6.78;100.00;99841.44;7377164;19;21009;-37
2023/10/28 02:19:35;;;;;;;8.60;4.13;;;;;;;6.75;100.00;99842.19;7398276;19;20419;-36
2023/10/28 02:22:10;;;;;;;7.37;3.60;;;;;;;6.75;100.00;99843.09;7377429;19;20475;-35
2023/10/28 02:24:42;;;;;;;4.97;3.17;;;;;;;6.78;100.00;99844.00;7401545;19;20833;-35
2023/10/28 02:27:12;;;;;;;6.83;3.60;;;;;;;6.78;100.00;99841.44;7375642;19;20450;-36
2023/10/28 02:29:42;;;;;;;8.40;3.57;;;;;;;6.81;100.00;99847.59;7398517;19;20483;-39
2023/10/28 02:32:12;;;;;;;6.20;3.40;;;;;;;6.81;100.00;99842.47;7375861;19;20427;-36
2023/10/28 02:34:42;;;;;;;7.07;4.07;;;;;;;6.81;100.00;99842.47;7400436;19;20479;-36
2023/10/28 02:37:14;;;;;;;9.50;4.13;;;;;;;6.78;100.00;99847.47;7376472;19;20455;-36
2023/10/28 02:39:44;;;;;;;7.17;3.70;;;;;;;6.81;100.00;99847.59;7398288;19;20436;-37
2023/10/28 02:42:14;;;;;;;6.10;3.40;;;;;;;6.81;100.00;99851.84;7377477;19;20415;-36
2023/10/28 02:44:43;;;;;;;6.20;3.63;;;;;;;6.77;100.00;99850.81;7400394;19;20474;-36
2023/10/28 02:47:13;;;;;;;7.93;3.70;;;;;;;6.75;100.00;99855.91;7375598;19;20459;-36
2023/10/28 02:49:42;;;;;;;7.03;3.43;;;;;;;6.72;100.00;99852.34;7400127;19;20412;-35
2023/10/28 02:52:15;;;;;;;4.70;3.30;;;;;;;6.74;100.00;99860.97;7377154;19;20846;-39
2023/10/28 02:54:44;;;;;;;6.30;3.90;;;;;;;6.73;100.00;99860.06;7397762;19;20415;-37
2023/10/28 02:57:14;;;;;;;6.83;4.00;;;;;;;6.74;100.00;99855.84;7375075;19;20538;-37
2023/10/28 02:59:44;;;;;;;5.50;3.33;;;;;;;6.74;100.00;99864.41;7398624;19;20804;-37
2023/10/28 03:02:14;;;;;;;9.00;3.77;;;;;;;6.74;100.00;99866.97;7377157;19;20435;-36
2023/10/28 03:04:44;;;;;;;14.70;3.87;;;;;;;6.72;100.00;99868.56;7397891;19;20417;-38
2023/10/28 03:07:17;;;;;;;6.70;3.87;;;;;;;6.74;100.00;99871.22;7375081;19;20832;-35
2023/10/28 03:09:47;;;;;;;9.67;4.30;;;;;;;6.73;100.00;99864.34;7397279;19;20999;-38
2023/10/28 03:12:16;;;;;;;7.63;3.60;;;;;;;6.75;100.00;99863.59;7376582;19;20817;-40
2023/10/28 03:14:46;;;;;;;10.07;4.17;;;;;;;6.76;100.00;99872.16;7396086;19;20407;-39
2023/10/28 03:17:17;;;;;;;10.37;4.17;;;;;;;6.73;100.00;99867.75;7374843;19;20560;-36
2023/10/28 03:19:46;;;;;;;7.93;3.80;;;;;;;6.75;100.00;99866.16;7396869;19;20421;-37
2023/10/28 03:22:19;;;;;;;7.40;3.83;;;;;;;6.72;100.00;99873.69;7376264;19;20860;-36
2023/10/28 03:24:48;;;;;;;7.77;4.10;;;;;;;6.70;100.00;99875.34;7399678;19;20408;-36
2023/10/28 03:27:18;;;;;;;8.03;4.10;;;;;;;6.64;100.00;99874.19;7373954;19;20447;-36
2023/10/28 03:29:49;;;;;;;7.50;4.13;;;;;;;6.68;100.00;99865.81;7396469;19;20408;-38
2023/10/28 03:32:19;;;;;;;10.17;4.43;;;;;;;6.72;100.00;99877.97;7374479;19;20502;-36
2023/10/28 03:34:49;;;;;;;7.73;4.30;;;;;;;6.75;100.00;99872.97;7397039;19;20404;-36
2023/10/28 03:37:21;;;;;;;6.80;4.27;;;;;;;6.74;100.00;99871.22;7375139;19;20454;-36
2023/10/28 03:39:51;;;;;;;6.60;4.07;;;;;;;6.72;100.00;99872.84;7396987;19;20400;-36
2023/10/28 03:42:20;;;;;;;6.43;3.90;;;;;;;6.77;100.00;99876.47;7375279;19;20443;-37
2023/10/28 03:44:50;;;;;;;6.73;4.10;;;;;;;6.72;100.00;99865.16;7398320;19;20467;-35
2023/10/28 03:47:21;;;;;;;8.47;4.33;;;;;;;6.73;100.00;99874.59;7373701;19;20474;-35
2023/10/28 03:49:50;;;;;;;9.53;4.33;;;;;;;6.74;100.00;99869.53;7398804;19;20410;-36
2023/10/28 03:52:23;;;;;;;9.30;4.53;;;;;;;6.79;100.00;99876.53;7373240;19;20791;-35
2023/10/28 03:54:52;;;;;;;9.23;5.00;;;;;;;6.77;100.00;99868.75;7396652;19;20977;-36
2023/10/28 03:57:22;;;;;;;7.70;4.10;;;;;;;6.73;100.00;99869.47;7372493;19;20478;-37
2023/10/28 03:59:51;;;;;;;9.33;4.70;;;;;;;6.72;100.00;99872.84;7396027;19;20399;-37
2023/10/28 04:02:21;;;;;;;7.80;4.60;;;;;;;6.74;100.00;99872.09;7374466;19;20547;-35
2023/10/28 04:04:51;;;;;;;11.97;5.20;;;;;;;6.70;100.00;99869.31;7398503;19;20408;-36
2023/10/28 04:07:23;;;;;;;7.57;4.10;;;;;;;6.72;100.00;99872.84;7373056;19;20451;-35
2023/10/28 04:09:52;;;;;;;9.90;5.23;;;;;;;6.72;100.00;99867.72;7396039;19;20471;-36
2023/10/28 04:12:22;;;;;;;10.97;4.63;;;;;;;6.67;100.00;99870.06;7373607;19;20431;-36
2023/10/28 04:14:52;;;;;;;10.20;4.33;;;;;;;6.64;100.00;99872.50;7398031;19;20403;-36
2023/10/28 04:17:24;;;;;;;11.03;4.63;;;;;;;6.68;100.00;99876.06;7369438;19;20446;-39
2023/10/28 04:19:54;;;;;;;9.10;4.90;;;;;;;6.66;100.00;99882.84;7389672;19;20412;-37
2023/10/28 04:22:28;;;;;;;10.57;4.63;;;;;;;6.66;100.00;99877.72;7366802;19;20969;-36
2023/10/28 04:24:58;;;;;;;11.80;5.27;;;;;;;6.65;100.00;99886.22;7389164;19;20517;-36
2023/10/28 04:27:28;;;;;;;10.00;5.10;;;;;;;6.64;100.00;99885.31;7366955;19;20550;-39
2023/10/28 04:29:57;;;;;;;10.33;5.83;;;;;;;6.64;100.00;99881.88;7395568;19;20412;-36
2023/10/28 04:32:27;;;;;;;12.47;5.43;;;;;;;6.64;100.00;99881.88;7371615;19;20430;-40
2023/10/28 04:34:57;;;;;;;8.33;4.37;;;;;;;6.58;100.00;99880.81;7395611;19;20408;-36
2023/10/28 04:37:43;;;;;;;11.77;6.13;;;;;;;6.58;100.00;99888.50;7372366;19;20451;-39
2023/10/28 04:40:14;;;;;;;7.80;4.43;;;;;;;6.59;100.00;99886.81;7397663;19;20400;-42
2023/10/28 04:42:44;;;;;;;12.23;5.70;;;;;;;6.61;100.00;99895.44;7373464;19;20424;-38
2023/10/28 04:45:14;;;;;;;12.80;6.10;;;;;;;6.62;100.00;99886.94;7395070;19;20760;-36
2023/10/28 04:47:43;;;;;;;11.50;5.70;;;;;;;6.64;100.00;99885.31;7371925;19;20459;-41
2023/10/28 04:50:13;;;;;;;12.43;5.37;;;;;;;6.60;100.00;99879.19;7395572;19;20407;-37
2023/10/28 04:52:45;;;;;;;12.80;6.37;;;;;;;6.65;100.00;99876.81;7372615;19;20431;-34
2023/10/28 04:55:15;;;;;;;8.77;4.70;;;;;;;6.59;100.00;99872.31;7395141;19;20432;-36
2023/10/28 04:57:44;;;;;;;11.47;5.00;;;;;;;6.60;100.00;99868.94;7372026;19;20459;-36
2023/10/28 05:00:16;;;;;;;10.30;5.33;;;;;;;6.65;100.00;99878.53;7395493;19;20403;-36
2023/10/28 05:02:46;;;;;;;15.80;5.10;;;;;;;6.65;100.00;99871.69;7372436;19;20423;-39
2023/10/28 05:05:16;;;;;;;11.20;5.63;;;;;;;6.67;100.00;99875.19;7397045;19;20428;-37
2023/10/28 05:07:49;;;;;;;9.13;5.20;;;;;;;6.66;100.00;99872.56;7371749;19;20535;-39
2023/10/28 05:10:19;;;;;;;15.23;6.67;;;;;;;6.60;100.00;99874.06;7395588;19;20404;-36
2023/10/28 05:12:49;;;;;;;10.10;5.47;;;;;;;6.60;100.00;99879.19;7372140;19;20466;-36
2023/10/28 05:15:19;;;;;;;9.80;5.00;;;;;;;6.63;100.00;99878.44;7396254;19;20404;-36
2023/10/28 05:17:48;;;;;;;9.87;5.30;;;;;;;6.67;100.00;99880.31;7371335;19;20447;-40
2023/10/28 05:20:21;;;;;;;12.00;5.50;;;;;;;6.66;100.00;99885.41;7395036;19;20403;-36
2023/10/28 05:22:53;;;;;;;13.43;6.73;;;;;;;6.60;100.00;99884.31;7372051;19;20453;-35
2023/10/28 05:25:22;;;;;;;12.27;6.40;;;;;;;6.62;100.00;99887.81;7394878;19;20392;-37
2023/10/28 05:27:52;;;;;;;9.40;5.57;;;;;;;6.59;100.00;99894.50;7370718;19;20454;-40
2023/10/28 05:30:23;;;;;;;12.10;5.43;;;;;;;6.62;100.00;99898.06;7394557;19;21049;-36
2023/10/28 05:32:53;;;;;;;10.30;5.10;;;;;;;6.65;100.00;99896.47;7369955;19;20848;-38
2023/10/28 05:35:22;;;;;;;13.27;6.20;;;;;;;6.67;100.00;99899.97;7394701;19;20439;-40
2023/10/28 05:37:55;;;;;;;17.87;5.90;;;;;;;6.64;100.00;99902.38;7369711;19;20548;-40
2023/10/28 05:40:24;;;;;;;14.63;6.13;;;;;;;6.60;100.00;99903.94;7393272;19;20411;-36
2023/10/28 05:42:54;;;;;;;13.13;5.40;;;;;;;6.60;100.00;99909.06;7371321;19;20446;-36
2023/10/28 05:45:24;;;;;;;10.00;5.73;;;;;;;6.59;100.00;99913.31;7392321;19;20396;-36
2023/10/28 05:47:54;;;;;;;16.00;6.27;;;;;;;6.60;100.00;99915.06;7370715;19;21014;-36
2023/10/28 05:50:23;;;;;;;13.53;6.90;;;;;;;6.64;100.00;99915.19;7392371;19;21035;-35
2023/10/28 05:52:56;;;;;;;14.03;6.17;;;;;;;6.68;100.00;99914.53;7371937;19;20477;-36
2023/10/28 05:55:25;;;;;;;14.40;6.80;;;;;;;6.64;100.00;99923.78;7393829;19;20400;-39
2023/10/28 05:57:55;;;;;;;11.90;6.40;;;;;;;6.65;100.00;99917.84;7369699;19;20455;-36
2023/10/28 06:00:25;;;;;;;12.93;6.40;;;;;;;6.61;100.00;99916.81;7392706;19;20474;-36
2023/10/28 06:02:55;;;;;;;11.03;5.63;;;;;;;6.71;100.00;99922.34;7370905;19;20423;-36
2023/10/28 06:05:25;;;;;;;13.50;5.97;;;;;;;6.94;100.00;99925.03;7391170;19;20427;-36
2023/10/28 06:07:57;;;;;;;16.77;8.13;;;;;;;6.93;100.00;99915.59;7369647;19;20451;-35
2023/10/28 06:10:27;;;;;;;13.53;5.60;;;;;;;6.83;100.00;99911.75;7389815;19;20951;-35
2023/10/28 06:12:57;;;;;;;18.83;9.30;;;;;;;6.89;100.00;99906.91;7370831;19;20435;-36
2023/10/28 06:15:26;;;;;;;21.87;8.97;;;;;;;6.85;100.00;99903.31;7392540;19;20759;-36
2023/10/28 06:17:57;;;;;;;21.20;9.30;;;;;;;6.86;100.00;99914.44;7369727;19;20459;-38
2023/10/28 06:20:26;;;;;;;17.43;8.03;;;;;;;6.80;100.00;99912.50;7391967;19;20404;-36
2023/10/28 06:22:59;;;;;;;16.50;8.77;;;;;;;6.84;100.00;99913.50;7368183;19;21695;-36
2023/10/28 06:25:28;;;;;;;19.20;8.40;;;;;;;6.89;100.00;99923.13;7390986;19;20438;-36
2023/10/28 06:27:58;;;;;;;14.07;6.67;;;;;;;6.95;100.00;99925.13;7369009;19;21074;-36
2023/10/28 06:30:27;;;;;;;15.70;6.70;;;;;;;6.92;100.00;99921.53;7393959;19;20963;-36
2023/10/28 06:32:58;;;;;;;11.20;6.40;;;;;;;6.89;100.00;99925.72;7368680;19;20439;-36
2023/10/28 06:35:28;;;;;;;10.20;5.67;;;;;;;6.91;100.00;99930.06;7390774;19;20407;-36
2023/10/28 06:38:00;;;;;;;15.90;6.40;;;;;;;6.95;100.00;99937.03;7368577;19;20885;-36
2023/10/28 06:40:30;;;;;;;12.20;5.80;;;;;;;6.97;100.00;99935.44;7393219;19;20754;-39
2023/10/28 06:43:00;;;;;;;14.10;5.83;;;;;;;6.86;100.00;99938.41;7367559;19;20439;-35
2023/10/28 06:45:31;;;;;;;12.17;5.80;;;;;;;6.77;100.00;99943.13;7389997;19;20725;-36
2023/10/28 06:48:03;;;;;;;11.50;5.70;;;;;;;6.77;100.00;99948.25;7369066;19;21147;-36
2023/10/28 06:50:33;;;;;;;10.90;5.40;;;;;;;6.74;100.00;99958.38;7394997;19;20435;-36
2023/10/28 06:53:05;;;;;;;8.97;5.17;;;;;;;6.73;100.00;99961.75;7377382;19;20550;-37
2023/10/28 06:55:36;;;;;;;17.20;6.50;;;;;;;6.71;100.00;99968.47;7397058;19;20403;-36
2023/10/28 06:58:06;;;;;;;12.13;5.40;;;;;;;6.69;100.00;99975.25;7375909;19;20518;-36
2023/10/28 07:00:37;;;;;;;12.30;4.93;;;;;;;6.66;100.00;99977.69;7397846;19;20470;-35
2023/10/28 07:03:07;;;;;;;8.73;4.90;;;;;;;6.69;100.00;99982.94;7375617;19;20452;-37
2023/10/28 07:05:38;;;;;;;9.53;4.50;;;;;;;6.67;100.00;99982.84;7397122;19;20781;-36
2023/10/28 07:08:10;;;;;;;10.53;4.93;;;;;;;6.68;100.00;99979.50;7376017;19;20449;-37
2023/10/28 07:10:39;;;;;;;10.57;5.67;;;;;;;6.70;100.00;99977.00;7375613;19;20396;-36
2023/10/28 07:13:09;;;;;;;8.97;5.07;;;;;;;6.71;100.00;99984.75;7393984;19;20414;-38
2023/10/28 07:15:39;;;;;;;13.20;4.60;;;;;;;6.70;100.00;99984.69;7366333;19;20475;-36
2023/10/28 07:18:09;;;;;;;10.13;4.60;;;;;;;6.69;100.00;99985.50;7390376;19;20427;-37
2023/10/28 07:20:40;;;;;;;12.40;6.30;;;;;;;6.64;100.00;99977.59;7367814;19;20419;-36
2023/10/28 07:23:12;;;;;;;11.33;5.53;;;;;;;6.72;100.00;99975.41;7389280;19;20425;-37
2023/10/28 07:25:45;;;;;;;14.37;6.63;;;;;;;6.76;100.00;99972.13;7370652;19;20404;-40
2023/10/28 07:28:16;;;;;;;12.80;5.00;;;;;;;6.71;100.00;99977.06;7388316;19;22062;-37
2023/10/28 07:30:50;;;;;;;8.90;4.60;;;;;;;6.70;100.00;99993.25;7367156;19;20495;-38
2023/10/28 07:33:23;;;;;;;10.17;5.00;;;;;;;6.68;100.00;99988.88;7389084;19;21378;-35
2023/10/28 07:35:53;;;;;;;9.37;4.60;;;;;;;6.71;100.00;99994.13;7368337;19;20424;-35
2023/10/28 07:38:25;;;;;;;10.53;5.00;;;;;;;6.68;100.00;99986.31;7390479;19;20983;-37
2023/10/28 07:40:55;;;;;;;11.90;5.63;;;;;;;6.74;100.00;99990.03;7368155;19;20998;-36
2023/10/28 07:43:26;;;;;;;11.27;5.33;;;;;;;6.78;100.00;99991.06;7389417;19;20428;-36
2023/10/28 07:45:56;;;;;;;11.37;5.93;;;;;;;6.81;100.00;99982.63;7368904;19;20946;-36
2023/10/28 07:48:26;;;;;;;13.20;5.70;;;;;;;6.74;100.00;99987.47;7388389;19;20446;-35
2023/10/28 07:50:55;;;;;;;10.87;5.43;;;;;;;6.76;100.00;99990.09;7365057;19;20422;-36
2023/10/28 07:53:28;;;;;;;12.40;5.97;;;;;;;6.84;100.00;99986.19;7389003;19;20765;-36
2023/10/28 07:55:58;;;;;;;13.53;6.40;;;;;;;6.84;100.00;99990.44;7368657;19;20483;-40
2023/10/28 07:58:29;;;;;;;12.50;5.90;;;;;;;6.86;100.00;99996.50;7388336;19;20431;-36
2023/10/28 08:01:01;;;;;;;17.10;6.57;;;;;;;6.88;100.00;99995.75;7364878;19;20448;-36
2023/10/28 08:03:33;;;;;;;9.23;5.20;;;;;;;6.87;100.00;99996.56;7388062;19;20399;-37
2023/10/28 08:06:10;;;;;;;14.90;6.60;;;;;;;6.87;100.00;99991.44;7365808;19;20864;-37
2023/10/28 08:08:57;;;;;;;12.47;6.27;;;;;;;6.88;100.00;100000.91;7387569;19;20447;-37
2023/10/28 08:11:29;;;;;;;14.43;6.27;;;;;;;6.91;100.00;100000.16;7366452;19;20978;-36
2023/10/28 08:14:00;;;;;;;14.40;6.67;;;;;;;6.93;100.00;100002.78;7382396;19;20400;-37
2023/10/28 08:16:30;;;;;;;13.67;7.07;;;;;;;6.93;100.00;99997.66;7371562;19;20439;-36
2023/10/28 08:18:59;;;;;;;10.70;5.57;;;;;;;6.93;100.00;100013.06;7394328;19;20452;-36
2023/10/28 08:21:29;;;;;;;14.53;6.53;;;;;;;6.96;100.00;100005.47;7372277;19;20487;-36
2023/10/28 08:24:01;;;;;;;13.30;6.87;;;;;;;6.95;100.00;100014.00;7394302;19;20961;-36
2023/10/28 08:26:31;;;;;;;11.80;6.50;;;;;;;6.98;100.00;100009.00;7373350;19;20969;-35
2023/10/28 08:29:01;;;;;;;15.30;6.80;;;;;;;6.94;100.00;100013.13;7386971;19;20439;-35
2023/10/28 08:31:31;;;;;;;17.03;8.17;;;;;;;6.97;100.00;100018.38;7364106;19;20419;-34
2023/10/28 08:34:03;;;;;;;12.10;6.00;;;;;;;7.00;100.00;100021.09;7386096;19;20478;-36
2023/10/28 08:36:33;;;;;;;17.37;7.33;;;;;;;6.96;100.00;100026.00;7363760;19;20426;-37
2023/10/28 08:39:07;;;;;;;17.90;8.70;;;;;;;6.96;100.00;100024.31;7386114;19;20458;-35
2023/10/28 08:41:37;;;;;;;61.43;24.60;;;;;;;7.10;100.00;100031.75;7364888;19;20455;-36
2023/10/28 08:44:08;;;;;;;20.77;8.00;;;;;;;7.12;100.00;100023.31;7387139;19;20395;-38
2023/10/28 08:46:39;;;;;;;22.43;9.40;;;;;;;7.05;100.00;100026.44;7364481;19;20426;-37
2023/10/28 08:49:15;;;;;;;22.33;8.97;;;;;;;7.21;100.00;100019.38;7386825;19;20467;-38
2023/10/28 08:51:49;;;;;;;15.80;7.80;;;;;;;7.25;100.00;100026.41;7365252;19;20429;-37
2023/10/28 08:54:21;;;;;;;17.50;7.70;;;;;;;7.18;100.00;100027.81;7387947;19;20413;-36
2023/10/28 08:56:52;;;;;;;22.60;9.93;;;;;;;7.18;100.00;100024.41;7364643;19;20426;-37
2023/10/28 08:59:21;;;;;;;23.80;10.33;;;;;;;7.21;100.00;100017.72;7388024;19;20435;-37
2023/10/28 09:01:51;;;;;;;30.90;12.00;;;;;;;7.25;100.00;100021.28;7364128;19;20423;-36
2023/10/28 09:04:22;;;;;;;16.80;8.30;;;;;;;7.22;100.00;100034.00;7385022;19;20408;-37
2023/10/28 09:06:53;;;;;;;25.53;10.73;;;;;;;7.21;100.00;100047.63;7364019;19;20538;-40
2023/10/28 09:09:25;;;;;;;35.90;15.03;;;;;;;7.23;100.00;100044.31;7386623;19;20503;-37
2023/10/28 09:12:01;;;;;;;18.80;7.90;;;;;;;7.23;100.00;100056.28;7362971;19;21419;-36
2023/10/28 09:14:31;;;;;;;15.70;7.77;;;;;;;7.18;100.00;100062.88;7385849;19;20419;-39
2023/10/28 09:17:02;;;;;;;20.03;7.47;;;;;;;7.18;100.00;100068.03;7363020;19;20527;-36
2023/10/28 09:19:32;;;;;;;18.97;8.43;;;;;;;7.19;100.00;100062.97;7386938;19;20411;-38
2023/10/28 09:22:02;;;;;;;15.63;7.90;;;;;;;7.23;100.00;100059.69;7364365;19;20456;-40
2023/10/28 09:24:34;;;;;;;15.50;7.40;;;;;;;7.15;100.00;100053.38;7387466;19;20422;-36
2023/10/28 09:27:04;;;;;;;18.20;8.13;;;;;;;7.22;100.00;100054.53;7363990;19;20433;-36
2023/10/28 09:29:34;;;;;;;16.60;8.23;;;;;;;7.19;100.00;100052.69;7387675;19;20404;-36
2023/10/28 09:32:08;;;;;;;21.00;7.47;;;;;;;7.22;100.00;100051.97;7363267;19;20812;-40
2023/10/28 09:34:39;;;;;;;19.33;7.63;;;;;;;7.25;100.00;100046.94;7386084;19;21852;-36
2023/10/28 09:37:09;;;;;;;12.80;6.97;;;;;;;7.30;100.00;100048.88;7352662;19;20451;-41
2023/10/28 09:39:46;;;;;;;13.60;7.27;;;;;;;7.25;100.00;100041.81;7388559;19;20412;-38
2023/10/28 09:42:17;;;;;;;17.80;7.53;;;;;;;7.30;100.00;100048.88;7365284;19;20430;-39
2023/10/28 09:44:48;;;;;;;17.30;8.03;;;;;;;7.33;100.00;100052.41;7387369;19;20399;-37
2023/10/28 09:47:24;;;;;;;15.40;7.60;;;;;;;7.33;100.00;100057.56;7363462;19;20455;-37
2023/10/28 09:49:56;;;;;;;22.30;8.50;;;;;;;7.35;100.00;100051.69;7387962;19;20494;-37
2023/10/28 09:52:26;;;;;;;19.20;8.80;;;;;;;7.37;100.00;100060.31;7362203;19;20423;-36
2023/10/28 09:55:05;;;;;;;18.70;8.40;;;;;;;7.32;100.00;100064.38;7386469;19;20415;-38
2023/10/28 09:57:35;;;;;;;19.77;8.50;;;;;;;7.29;100.00;100066.81;7363170;19;20439;-38
2023/10/28 10:00:10;;;;;;;14.87;7.40;;;;;;;7.25;100.00;100068.38;7386970;19;20403;-37
2023/10/28 10:02:48;;;;;;;17.67;7.30;;;;;;;7.26;100.00;100062.41;7362778;19;20459;-37
2023/10/28 10:05:23;;;;;;;18.10;7.90;;;;;;;7.26;100.00;100071.78;7385710;19;20410;-39
2023/10/28 10:08:00;;;;;;;18.33;8.30;;;;;;;7.26;100.00;100072.69;7362103;19;20447;-37
2023/10/28 10:10:34;;;;;;;19.00;9.40;;;;;;;7.26;100.00;100072.69;7387234;19;20435;-37
2023/10/28 10:13:04;;;;;;;15.83;7.77;;;;;;;7.29;100.00;100066.81;7364044;19;20543;-36
2023/10/28 10:15:35;;;;;;;16.43;7.63;;;;;;;7.29;100.00;100059.97;7384736;19;20412;-37
2023/10/28 10:18:12;;;;;;;22.57;8.40;;;;;;;7.33;100.00;100060.97;7362656;19;20444;-36
2023/10/28 10:20:45;;;;;;;15.43;7.50;;;;;;;7.36;100.00;100053.44;7364526;19;20399;-38
2023/10/28 10:23:16;;;;;;;15.37;7.77;;;;;;;7.35;100.00;100054.25;7386704;19;20403;-37
2023/10/28 10:25:49;;;;;;;20.20;8.20;;;;;;;7.39;100.00;100063.81;7369235;19;20411;-38
2023/10/28 10:28:23;;;;;;;14.13;7.57;;;;;;;7.37;100.00;100064.56;7389622;19;20461;-37
2023/10/28 10:30:53;;;;;;;16.13;8.10;;;;;;;7.40;100.00;100057.88;7368769;19;20968;-36
2023/10/28 10:33:29;;;;;;;16.20;7.17;;;;;;;7.40;100.00;100068.13;7390467;19;20415;-40
2023/10/28 10:35:59;;;;;;;15.30;7.40;;;;;;;7.43;100.00;100050.31;7371024;19;20439;-38
2023/10/28 10:38:30;;;;;;;17.27;8.17;;;;;;;7.46;100.00;100053.81;7391403;19;20435;-37
2023/10/28 10:41:04;;;;;;;23.13;9.43;;;;;;;7.44;100.00;100061.47;7368864;19;20426;-38
2023/10/28 10:43:37;;;;;;;26.80;11.90;;;;;;;7.49;100.00;100057.38;7390318;19;20405;-37
2023/10/28 10:46:07;;;;;;;53.53;22.17;;;;;;;7.50;100.00;100058.28;7368447;19;20503;-37
2023/10/28 10:48:39;;;;;;;19.80;8.67;;;;;;;7.52;100.00;100054.06;7391202;19;20466;-36
2023/10/28 10:51:11;;;;;;;15.77;8.20;;;;;;;7.52;100.00;100048.94;7368670;19;20407;-37
2023/10/28 10:53:44;;;;;;;17.90;8.37;;;;;;;7.55;100.00;100049.94;7392782;19;20414;-37
2023/10/28 10:56:23;;;;;;;17.20;7.83;;;;;;;7.57;100.00;100056.06;7369113;19;20415;-37
2023/10/28 10:58:53;;;;;;;16.73;9.40;;;;;;;7.63;100.00;100058.00;7390586;19;20812;-38
2023/10/28 11:01:22;;;;;;;20.23;7.80;;;;;;;7.64;100.00;100062.31;7369203;19;20427;-37
2023/10/28 11:03:52;;;;;;;19.73;8.20;;;;;;;7.67;100.00;100074.41;7388978;19;20399;-37
2023/10/28 11:06:24;;;;;;;18.67;8.30;;;;;;;7.64;100.00;100079.41;7369262;19;20429;-35
2023/10/28 11:08:54;;;;;;;16.30;8.47;;;;;;;7.73;100.00;100066.09;7390396;19;20773;-37
2023/10/28 11:11:26;;;;;;;15.33;7.90;;;;;;;7.61;100.00;100069.91;7367808;19;20426;-36
2023/10/28 11:13:55;;;;;;;16.93;8.10;;;;;;;7.65;100.00;100070.91;7389420;19;20411;-37
2023/10/28 11:16:30;;;;;;;16.00;7.70;;;;;;;7.70;100.00;100074.53;7372871;19;20966;-37
2023/10/28 11:18:59;;;;;;;21.77;8.73;;;;;;;7.77;100.00;100076.56;7396261;19;20446;-37
2023/10/28 11:21:29;;;;;;;17.10;8.17;;;;;;;7.76;100.00;100076.47;7375757;19;20473;-36
2023/10/28 11:23:59;;;;;;;17.80;8.40;;;;;;;7.79;100.00;100074.06;7396659;19;20804;-37
2023/10/28 11:26:31;;;;;;;19.30;8.47;;;;;;;7.86;100.00;100065.78;7372782;19;20436;-38
2023/10/28 11:29:02;;;;;;;18.17;8.20;;;;;;;7.87;100.00;100057.28;7396356;19;20506;-37
2023/10/28 11:31:33;;;;;;;20.17;9.40;;;;;;;7.85;100.00;100056.34;7372375;19;20419;-37
2023/10/28 11:34:04;;;;;;;18.30;7.97;;;;;;;7.88;100.00;100060.69;7398599;19;20403;-37
2023/10/28 11:36:33;;;;;;;20.73;10.07;;;;;;;7.91;100.00;100058.28;7371362;19;20423;-36
2023/10/28 11:39:11;;;;;;;15.90;8.47;;;;;;;7.99;100.00;100061.16;7396032;19;20473;-37
2023/10/28 11:41:44;;;;;;;23.43;9.27;;;;;;;8.01;100.00;100064.66;7373916;19;20794;-37